Accueil
METAR-TAF:

METAR-TAF

Aéroports :

Port-d'Espagne, Trinité, Trinité-et-Tobago

Aéroport international de Piarco

latitude: 10-37N, longitude: 061-21W, altitude: 12 m

Observation

Le bulletin a été fait il y a 1 heure et 8 minutes, à 02:00 UTC
Vent 4 kt de est/sud-est
Température 25°C
Humidité 79%
Pression 1014 hPa
Visibilité 10 km ou plus
Quelques nuages à une hauteur de 1600 ft

METAR: TTPP 250200Z 11004KT 9999 FEW016 25/21 Q1014 NOSIG

Heure: 23:08 (03:08 UTC)

Prévision

Le bulletin a été fait il y a 5 heures et 8 minutes, à 22:00 UTC
Prévision valable du 25 à 00 UTC au 25 à 24 UTC
Vent 5 kt de est
Visibilité 10 km ou plus
Quelques nuages à une hauteur de 1600 ft
Nuages épars à une hauteur de 3800 ft
Temporairement
du 25 à 00 UTC au 25 à 04 UTC
averses à proximité
Evoluant progressivement
du 25 à 12 UTC au 25 à 14 UTC
Vent 12 kt de est

TAF: TTPP 242200Z 2500/2524 10005KT 9999 FEW016 SCT038 TEMPO 2500/2504 VCSH BECMG 2512/2514 10012KT

Observations et prévisions météorologiques de plus de 4000 aéroports (messages METAR et TAF).

Les stations disponibles sont représentées par des disques jaunes et rouges sur la carte.

Passer la souris dessus pour voir le nom de la station.

Cliquer dessus pour voir les observations et prévisions météorologiques.

Pour changer de carte: cliquez sur les boutons verts avec une croix noire pour zoomer, sur le bouton vert avec un tiret pour effectuer un zoom arrière, ou sur les flèches vertes pour les cartes adjacentes.


METAR-TAF: